createdAt,value
2017-11-17T09:59:08.956Z,49.19
2017-11-17T10:00:08.944Z,49.12
2017-11-17T10:01:38.770Z,49.48
2017-11-17T10:02:38.784Z,49.77
2017-11-17T10:07:54.151Z,51.94
2017-11-17T10:08:54.111Z,50.98
2017-11-17T10:10:47.038Z,51.05
2017-11-17T10:11:46.983Z,50.95
2017-11-17T10:13:39.942Z,47.08
2017-11-17T10:14:39.931Z,45.03
2017-11-17T10:20:36.733Z,50.42
2017-11-17T10:21:36.486Z,48.90
2017-11-17T11:09:55.113Z,63.35
2017-11-17T11:10:54.817Z,62.40
2017-11-17T11:12:51.460Z,61.93
2017-11-17T11:13:51.791Z,63.23
2017-11-17T11:17:05.764Z,65.86
2017-11-17T11:21:00.128Z,66.27
2017-11-17T11:22:54.240Z,66.53
2017-11-17T11:24:02.896Z,66.14
2017-11-17T11:25:48.585Z,65.23
2017-11-17T11:26:58.062Z,65.03
2017-11-17T11:28:43.042Z,65.32
2017-11-17T11:29:43.064Z,65.80
2017-11-17T11:31:37.787Z,65.13
2017-11-17T11:32:37.041Z,65.48
2017-11-17T11:34:31.902Z,65.77
2017-11-17T11:35:32.208Z,67.29
2017-11-17T11:37:26.642Z,67.47
2017-11-17T11:38:35.033Z,67.67
2017-11-17T11:40:21.020Z,65.77
2017-11-17T11:41:21.062Z,66.43
2017-11-17T11:43:15.888Z,65.42
2017-11-17T11:44:24.045Z,63.99
2017-11-17T11:46:09.778Z,62.56
2017-11-17T11:47:09.010Z,63.13
2017-11-17T11:49:04.229Z,64.08
2017-11-17T11:50:13.014Z,64.28
2017-11-17T11:51:58.579Z,63.23
2017-11-17T11:53:07.445Z,62.18
2017-11-17T11:54:54.535Z,62.08
2017-11-17T11:55:55.345Z,62.59
2017-11-17T11:57:50.428Z,63.07
2017-11-17T11:58:49.271Z,63.17
2017-11-17T12:00:43.813Z,60.97
2017-11-17T12:01:42.732Z,60.59
2017-11-17T12:03:38.018Z,60.49
2017-11-17T12:04:36.082Z,58.50
2017-11-17T12:06:31.075Z,57.92
2017-11-17T12:07:31.228Z,57.35
2017-11-17T12:09:26.211Z,56.87
2017-11-17T12:10:25.834Z,57.95
2017-11-17T12:12:20.187Z,57.09
2017-11-17T12:13:19.339Z,57.35
2017-11-17T12:15:14.458Z,57.64
2017-11-17T12:16:15.072Z,56.68
2017-11-17T12:18:09.286Z,57.07
2017-11-17T12:19:08.849Z,58.21
2017-11-17T12:21:04.671Z,59.16
2017-11-17T12:22:04.121Z,57.64
2017-11-17T12:23:58.631Z,55.92
2017-11-17T12:24:57.462Z,54.11
2017-11-17T12:26:52.561Z,55.63
2017-11-17T12:27:51.625Z,55.83
2017-11-17T12:29:48.076Z,54.59
2017-11-17T12:30:48.005Z,53.64
2017-11-17T12:32:41.121Z,53.54
2017-11-17T12:33:41.583Z,55.54
2017-11-17T12:35:35.653Z,55.73
2017-11-17T12:36:36.426Z,55.61
2017-11-17T12:38:30.563Z,55.13
2017-11-17T12:39:29.416Z,55.42
2017-11-17T12:41:46.680Z,54.94
2017-11-17T12:42:24.511Z,55.90
2017-11-17T12:44:18.945Z,54.56
2017-11-17T12:45:19.925Z,52.56
2017-11-17T12:47:13.249Z,52.09
2017-11-17T12:48:13.803Z,52.28
2017-11-17T12:50:08.499Z,56.21
2017-11-17T12:51:07.629Z,56.78
2017-11-17T12:53:03.300Z,57.54
2017-11-17T12:54:02.780Z,56.11
2017-11-17T12:55:57.011Z,56.21
2017-11-17T12:56:57.268Z,56.59
2017-11-17T12:58:51.578Z,57.82
2017-11-17T12:59:50.559Z,58.30
2017-11-17T13:01:45.696Z,57.54
2017-11-17T13:02:45.857Z,56.21
2017-11-17T13:04:39.940Z,55.28
2017-11-17T13:05:40.509Z,56.33
2017-11-17T13:07:35.509Z,56.81
2017-11-17T13:08:35.960Z,55.95
2017-11-17T13:10:28.741Z,55.73
2017-11-17T13:11:28.831Z,55.54
2017-11-17T13:13:23.115Z,55.83
2017-11-17T13:14:22.100Z,57.07
2017-11-17T13:16:15.262Z,56.97
2017-11-17T13:17:16.232Z,56.59
2017-11-17T13:19:14.481Z,55.83
2017-11-17T13:20:12.811Z,56.59
2017-11-17T13:22:08.818Z,55.73
2017-11-17T13:23:07.537Z,56.30
2017-11-17T13:25:00.434Z,55.73
2017-11-17T13:26:00.346Z,54.97
2017-11-17T13:27:55.272Z,55.00
2017-11-17T13:28:55.516Z,55.38
2017-11-17T13:30:49.722Z,56.33
2017-11-17T13:31:49.688Z,57.09
2017-11-17T13:33:44.103Z,57.95
2017-11-17T13:34:44.042Z,56.04
2017-11-17T13:36:36.967Z,55.85
2017-11-17T13:37:37.648Z,56.43
2017-11-17T13:39:30.718Z,57.82
2017-11-17T13:40:32.853Z,59.45
2017-11-17T13:42:25.780Z,58.87
2017-11-17T13:43:25.586Z,58.59
2017-11-17T13:45:20.082Z,57.04
2017-11-17T13:46:20.480Z,57.80
2017-11-17T13:48:15.251Z,58.08
2017-11-17T13:49:15.873Z,58.37
2017-11-17T13:51:09.901Z,59.80
2017-11-17T13:52:10.591Z,60.08
2017-11-17T13:54:05.182Z,59.99
2017-11-17T13:55:04.597Z,58.65
2017-11-17T13:57:01.955Z,59.51
